createdAt,value
2017-02-28T00:00:30.843Z,985.34
2017-02-28T00:01:11.372Z,985.36
2017-02-28T00:01:51.873Z,985.42
2017-02-28T00:02:32.382Z,985.4
2017-02-28T00:03:12.885Z,985.44
2017-02-28T00:03:53.372Z,985.34
2017-02-28T00:04:33.831Z,985.36
2017-02-28T00:05:14.329Z,985.31
2017-02-28T00:05:56.775Z,985.33
2017-02-28T00:06:37.253Z,985.32
2017-02-28T00:07:19.723Z,985.28
2017-02-28T00:08:00.165Z,985.34
2017-02-28T00:08:40.660Z,985.4
2017-02-28T00:09:21.094Z,985.39
2017-02-28T00:10:01.606Z,985.24
2017-02-28T00:10:42.060Z,985.29
2017-02-28T00:11:22.556Z,985.28
2017-02-28T00:12:03.050Z,985.28
2017-02-28T00:12:43.545Z,985.24
2017-02-28T00:13:24.037Z,985.32
2017-02-28T00:14:04.498Z,985.31
2017-02-28T00:14:44.956Z,985.3
2017-02-28T00:15:25.495Z,985.26
2017-02-28T00:16:06.038Z,985.23
2017-02-28T00:16:46.506Z,985.27
2017-02-28T00:17:27.009Z,985.18
2017-02-28T00:18:07.524Z,985.27
2017-02-28T00:18:48.021Z,985.22
2017-02-28T00:19:28.467Z,985.24
2017-02-28T00:20:08.975Z,985.28
2017-02-28T00:20:49.483Z,985.28
2017-02-28T00:21:29.971Z,985.42
2017-02-28T00:22:10.515Z,985.3
2017-02-28T00:22:50.990Z,985.45
2017-02-28T00:23:31.469Z,985.29
2017-02-28T00:24:11.959Z,985.29
2017-02-28T00:24:52.582Z,985.3
2017-02-28T00:25:33.047Z,985.31
2017-02-28T00:26:13.521Z,985.23
2017-02-28T00:26:54.139Z,985.25
2017-02-28T00:27:34.587Z,985.18
2017-02-28T00:28:15.096Z,985.27
2017-02-28T00:28:55.579Z,985.16
2017-02-28T00:29:36.055Z,985.19
2017-02-28T00:30:16.543Z,985.26
2017-02-28T00:30:57.029Z,985.08
2017-02-28T00:31:37.543Z,985.15
2017-02-28T00:32:18.002Z,985.08
2017-02-28T00:32:58.474Z,985.01
2017-02-28T00:33:38.938Z,985
2017-02-28T00:34:19.462Z,984.87
2017-02-28T00:35:00.001Z,984.94
2017-02-28T00:35:40.406Z,984.89
2017-02-28T00:36:20.916Z,984.84
2017-02-28T00:37:01.414Z,985
2017-02-28T00:37:41.921Z,984.79
2017-02-28T00:38:22.385Z,984.73
2017-02-28T00:39:02.899Z,984.84
2017-02-28T00:39:43.415Z,984.87
2017-02-28T00:40:23.825Z,984.96
2017-02-28T00:41:04.322Z,984.91
2017-02-28T00:41:44.744Z,984.91
2017-02-28T00:42:25.235Z,984.88
2017-02-28T00:43:05.705Z,984.89
2017-02-28T00:43:46.156Z,984.91
2017-02-28T00:44:26.680Z,984.83
2017-02-28T00:45:07.218Z,984.87
2017-02-28T00:45:47.785Z,984.89
2017-02-28T00:46:28.273Z,984.85
2017-02-28T00:47:08.788Z,984.78
2017-02-28T00:47:49.277Z,984.84
2017-02-28T00:48:29.769Z,984.86
2017-02-28T00:49:10.267Z,984.84
2017-02-28T00:49:50.738Z,984.85
2017-02-28T00:50:31.262Z,984.71
2017-02-28T00:51:11.721Z,984.76
2017-02-28T00:51:52.210Z,984.8
2017-02-28T00:52:32.708Z,984.79
2017-02-28T00:53:13.286Z,984.83
2017-02-28T00:53:53.743Z,984.74
2017-02-28T00:54:34.278Z,984.78
2017-02-28T00:55:14.741Z,984.89
2017-02-28T00:55:55.246Z,984.84
2017-02-28T00:56:35.744Z,984.87
2017-02-28T00:57:16.202Z,984.86
2017-02-28T00:57:56.696Z,984.95
2017-02-28T00:58:37.233Z,984.88
2017-02-28T00:59:17.700Z,984.81
2017-02-28T00:59:58.138Z,984.9
2017-02-28T01:00:38.587Z,984.97
2017-02-28T01:01:19.037Z,984.96
2017-02-28T01:01:59.530Z,984.97
2017-02-28T01:02:40.049Z,985.02
2017-02-28T01:03:20.526Z,984.93
2017-02-28T01:04:01.031Z,985.19
2017-02-28T01:04:41.521Z,985.23
2017-02-28T01:05:21.993Z,985.27
2017-02-28T01:06:02.482Z,985.27
2017-02-28T01:06:42.952Z,985.41
2017-02-28T01:07:23.484Z,985.31
2017-02-28T01:08:03.897Z,985.24
2017-02-28T01:08:44.422Z,985.31
2017-02-28T01:09:24.915Z,985.28
2017-02-28T01:10:05.361Z,985.25
2017-02-28T01:10:45.868Z,985.36
2017-02-28T01:11:26.320Z,985.26
2017-02-28T01:12:06.838Z,985.2
2017-02-28T01:12:47.358Z,985.25
2017-02-28T01:13:27.834Z,985.17
2017-02-28T01:14:08.279Z,985.21
2017-02-28T01:14:48.786Z,985.17
2017-02-28T01:15:29.284Z,985.2
2017-02-28T01:16:09.792Z,985.24
2017-02-28T01:16:50.300Z,985.19
2017-02-28T01:17:30.809Z,985.13
2017-02-28T01:18:11.336Z,985.18
2017-02-28T01:18:51.854Z,985.1
2017-02-28T01:19:32.287Z,985.07
2017-02-28T01:20:12.742Z,985.25
2017-02-28T01:20:53.249Z,985.17
2017-02-28T01:21:33.744Z,985.16
2017-02-28T01:22:14.209Z,985.17
2017-02-28T01:22:54.736Z,985.22
2017-02-28T01:23:35.235Z,985.25
2017-02-28T01:24:15.707Z,985.43
2017-02-28T01:24:56.175Z,985.21
2017-02-28T01:25:36.703Z,985.32
2017-02-28T01:26:17.294Z,985.31
2017-02-28T01:26:57.837Z,985.25
2017-02-28T01:27:38.301Z,985.2
2017-02-28T01:28:18.802Z,985.15
2017-02-28T01:28:59.306Z,985.26
2017-02-28T01:29:39.811Z,985.25
2017-02-28T01:30:20.265Z,985.22
2017-02-28T01:31:00.800Z,985.25
2017-02-28T01:31:41.287Z,985.23
2017-02-28T01:32:21.842Z,985.18
2017-02-28T01:33:02.316Z,985.38
2017-02-28T01:33:42.777Z,985.32
2017-02-28T01:34:23.252Z,985.28
2017-02-28T01:35:03.762Z,985.24
2017-02-28T01:35:44.216Z,985.33
2017-02-28T01:36:24.745Z,985.31
2017-02-28T01:37:05.187Z,985.31
2017-02-28T01:37:45.724Z,985.25
2017-02-28T01:38:26.199Z,985.15
2017-02-28T01:39:06.693Z,985.15
2017-02-28T01:39:47.250Z,985.14
2017-02-28T01:40:27.701Z,985.09
2017-02-28T01:41:08.174Z,985.11
2017-02-28T01:41:48.632Z,985.05
2017-02-28T01:42:29.131Z,985.09
2017-02-28T01:43:09.737Z,985.22
2017-02-28T01:43:50.165Z,984.99
2017-02-28T01:44:30.671Z,985.03
2017-02-28T01:45:11.127Z,985.1
2017-02-28T01:45:51.627Z,985.19
2017-02-28T01:46:32.134Z,985.19
2017-02-28T01:47:12.653Z,985.17
2017-02-28T01:47:53.173Z,984.96
2017-02-28T01:48:33.640Z,984.92
2017-02-28T01:49:14.138Z,985.05
2017-02-28T01:49:54.786Z,985.06
2017-02-28T01:50:35.257Z,984.88
2017-02-28T01:51:15.749Z,985.01
2017-02-28T01:51:56.222Z,984.91
2017-02-28T01:52:36.684Z,985.01
2017-02-28T01:53:17.146Z,984.84
2017-02-28T01:53:57.665Z,984.91
2017-02-28T01:54:38.128Z,984.8
2017-02-28T01:55:18.577Z,984.78
2017-02-28T01:55:59.050Z,984.83
2017-02-28T01:56:39.549Z,984.79
2017-02-28T01:57:20.012Z,984.88
2017-02-28T01:58:00.502Z,984.8
2017-02-28T01:58:41.038Z,984.8
2017-02-28T01:59:21.520Z,984.86
2017-02-28T02:00:02.057Z,984.77
2017-02-28T02:00:43.434Z,984.76
2017-02-28T02:01:23.957Z,984.82
2017-02-28T02:02:04.424Z,984.76
2017-02-28T02:02:44.922Z,984.75
2017-02-28T02:03:25.463Z,984.84
2017-02-28T02:04:05.977Z,984.75
2017-02-28T02:04:46.481Z,984.72
2017-02-28T02:05:26.942Z,984.71
2017-02-28T02:06:07.429Z,984.76
2017-02-28T02:06:47.893Z,984.75
2017-02-28T02:07:28.379Z,984.84
2017-02-28T02:08:08.874Z,984.84
2017-02-28T02:08:49.385Z,984.67
2017-02-28T02:09:29.874Z,984.73
2017-02-28T02:10:10.333Z,984.79
2017-02-28T02:10:50.877Z,984.82
2017-02-28T02:11:31.326Z,984.89
2017-02-28T02:12:11.829Z,984.7
2017-02-28T02:12:52.391Z,984.79
2017-02-28T02:13:32.879Z,984.77
2017-02-28T02:14:13.373Z,984.76
2017-02-28T02:14:53.879Z,984.81
2017-02-28T02:15:34.420Z,984.66
2017-02-28T02:16:14.948Z,984.66
2017-02-28T02:16:55.390Z,984.67
2017-02-28T02:17:35.869Z,984.73
2017-02-28T02:18:16.358Z,984.72
2017-02-28T02:18:56.829Z,984.75
2017-02-28T02:19:37.304Z,984.81
2017-02-28T02:20:17.811Z,984.8
2017-02-28T02:20:58.369Z,984.79
2017-02-28T02:21:38.777Z,984.78
2017-02-28T02:22:19.267Z,984.84
2017-02-28T02:22:59.757Z,984.82
2017-02-28T02:23:40.211Z,984.73
2017-02-28T02:24:20.673Z,984.69
2017-02-28T02:25:01.146Z,984.68
2017-02-28T02:25:41.677Z,984.68
2017-02-28T02:26:22.219Z,984.6
2017-02-28T02:27:02.729Z,984.72
2017-02-28T02:27:43.278Z,984.65
2017-02-28T02:28:23.710Z,984.59
2017-02-28T02:29:04.233Z,984.62
2017-02-28T02:29:44.712Z,984.67
2017-02-28T02:30:25.254Z,984.67
2017-02-28T02:31:05.714Z,984.79
2017-02-28T02:31:46.247Z,984.72
2017-02-28T02:32:26.743Z,984.7
2017-02-28T02:33:07.305Z,984.49
2017-02-28T02:33:47.790Z,984.61
2017-02-28T02:34:28.262Z,984.41
2017-02-28T02:35:08.731Z,984.47
2017-02-28T02:35:49.205Z,984.51
2017-02-28T02:36:29.685Z,984.44
2017-02-28T02:37:10.215Z,984.44
2017-02-28T02:37:50.646Z,984.49
2017-02-28T02:38:31.141Z,984.4
2017-02-28T02:39:11.623Z,984.41
2017-02-28T02:39:52.102Z,984.48
2017-02-28T02:40:32.694Z,984.49
2017-02-28T02:41:13.154Z,984.53
2017-02-28T02:41:53.637Z,984.48
2017-02-28T02:42:34.135Z,984.51
2017-02-28T02:43:14.649Z,984.87
2017-02-28T02:43:55.096Z,984.5
2017-02-28T02:44:35.551Z,984.61
2017-02-28T02:45:16.055Z,984.57
2017-02-28T02:45:56.527Z,984.5
2017-02-28T02:46:37.053Z,984.58
2017-02-28T02:47:17.583Z,984.82
2017-02-28T02:47:58.043Z,984.72
2017-02-28T02:48:38.545Z,984.75
2017-02-28T02:49:19.074Z,984.61
2017-02-28T02:49:59.545Z,984.56
2017-02-28T02:50:39.979Z,984.75
2017-02-28T02:51:20.475Z,984.7
2017-02-28T02:52:00.991Z,984.64
2017-02-28T02:52:41.495Z,984.93
2017-02-28T02:53:21.924Z,984.73
2017-02-28T02:54:02.441Z,984.52
2017-02-28T02:54:42.913Z,984.81
2017-02-28T02:55:23.380Z,984.8
2017-02-28T02:56:04.580Z,984.69
2017-02-28T02:56:45.077Z,984.66
2017-02-28T02:57:25.533Z,984.72
2017-02-28T02:58:06.003Z,984.66
2017-02-28T02:58:46.495Z,984.76
2017-02-28T02:59:27.059Z,984.76
2017-02-28T03:00:07.545Z,984.74
2017-02-28T03:00:48.027Z,984.72
2017-02-28T03:01:28.457Z,984.8
2017-02-28T03:02:08.938Z,984.76
2017-02-28T03:02:49.476Z,984.79
2017-02-28T03:03:29.972Z,984.69
2017-02-28T03:04:10.440Z,984.67
2017-02-28T03:04:50.905Z,984.79
2017-02-28T03:05:31.371Z,984.79
2017-02-28T03:06:11.853Z,984.78
2017-02-28T03:06:52.359Z,984.71
2017-02-28T03:07:32.854Z,984.75
2017-02-28T03:08:13.392Z,984.66
2017-02-28T03:08:53.874Z,984.75
2017-02-28T03:09:34.421Z,984.74
2017-02-28T03:10:14.939Z,984.7
2017-02-28T03:10:55.473Z,984.65
2017-02-28T03:11:36.051Z,984.74
2017-02-28T03:12:16.479Z,984.65
2017-02-28T03:12:56.941Z,984.82
2017-02-28T03:13:37.422Z,984.79
2017-02-28T03:14:17.945Z,984.76
2017-02-28T03:14:58.516Z,984.77
2017-02-28T03:15:38.998Z,984.77
2017-02-28T03:16:19.471Z,984.84
2017-02-28T03:17:00.006Z,984.78
2017-02-28T03:17:41.266Z,984.79
2017-02-28T03:18:21.734Z,984.74
2017-02-28T03:19:02.256Z,984.81
2017-02-28T03:19:42.782Z,984.77
2017-02-28T03:20:23.264Z,984.79
2017-02-28T03:21:03.799Z,984.72
2017-02-28T03:21:44.282Z,984.76
2017-02-28T03:22:24.800Z,984.76
2017-02-28T03:23:06.109Z,984.95
2017-02-28T03:23:46.558Z,984.86
2017-02-28T03:24:27.037Z,984.76
2017-02-28T03:25:07.512Z,984.8
2017-02-28T03:25:47.999Z,984.74
2017-02-28T03:26:28.534Z,984.65
2017-02-28T03:27:09.058Z,984.74
2017-02-28T03:27:49.515Z,984.61
2017-02-28T03:28:29.976Z,984.7
2017-02-28T03:29:10.447Z,984.74
2017-02-28T03:29:50.935Z,984.7
2017-02-28T03:30:31.404Z,984.53
2017-02-28T03:31:11.907Z,984.6
2017-02-28T03:31:52.409Z,984.75
2017-02-28T03:32:32.876Z,984.7
2017-02-28T03:33:13.430Z,984.78
2017-02-28T03:33:53.927Z,984.71
2017-02-28T03:34:34.395Z,984.58
2017-02-28T03:35:14.863Z,984.61
2017-02-28T03:35:55.387Z,984.81
2017-02-28T03:36:35.885Z,984.62
2017-02-28T03:37:16.407Z,984.58
2017-02-28T03:37:56.852Z,984.69
2017-02-28T03:38:37.318Z,984.72
2017-02-28T03:39:17.830Z,984.72
2017-02-28T03:39:58.304Z,984.61
2017-02-28T03:40:39.378Z,984.66
2017-02-28T03:41:19.887Z,984.7
2017-02-28T03:42:00.353Z,984.68
2017-02-28T03:42:40.874Z,984.65
2017-02-28T03:43:21.287Z,984.71
2017-02-28T03:44:01.802Z,984.66
2017-02-28T03:44:42.344Z,984.62
2017-02-28T03:45:22.821Z,984.7
2017-02-28T03:46:03.277Z,984.76
2017-02-28T03:46:43.754Z,984.74
2017-02-28T03:47:24.211Z,984.75
2017-02-28T03:48:04.775Z,984.65
2017-02-28T03:48:45.254Z,984.64
2017-02-28T03:49:25.786Z,984.78
2017-02-28T03:50:06.254Z,984.73
2017-02-28T03:50:46.707Z,984.74
2017-02-28T03:51:27.180Z,984.63
2017-02-28T03:52:07.639Z,984.7
2017-02-28T03:52:48.162Z,984.67
2017-02-28T03:53:28.636Z,984.67
2017-02-28T03:54:09.150Z,984.69
2017-02-28T03:54:49.626Z,984.68
2017-02-28T03:55:30.135Z,984.67
2017-02-28T03:56:10.616Z,984.69
2017-02-28T03:56:51.117Z,984.7
2017-02-28T03:57:31.582Z,984.72
2017-02-28T03:58:12.039Z,984.65
2017-02-28T03:58:52.517Z,984.58
2017-02-28T03:59:32.985Z,984.63
2017-02-28T04:00:13.481Z,984.58
2017-02-28T04:00:53.961Z,984.63
2017-02-28T04:01:34.452Z,984.65
2017-02-28T04:02:14.959Z,984.61
2017-02-28T04:02:55.508Z,984.59
2017-02-28T04:03:35.939Z,984.63
2017-02-28T04:04:16.404Z,984.68
2017-02-28T04:04:56.903Z,984.65
2017-02-28T04:05:37.397Z,984.62
2017-02-28T04:06:17.913Z,984.61
2017-02-28T04:06:58.427Z,984.58
2017-02-28T04:07:38.944Z,984.63
2017-02-28T04:08:19.434Z,984.56
2017-02-28T04:08:59.935Z,984.57
2017-02-28T04:09:40.444Z,984.57
2017-02-28T04:10:20.924Z,984.52
2017-02-28T04:11:01.445Z,984.55
2017-02-28T04:11:41.844Z,984.55
2017-02-28T04:12:22.336Z,984.55
2017-02-28T04:13:02.829Z,984.54
2017-02-28T04:13:43.298Z,984.49
2017-02-28T04:14:23.795Z,984.51
2017-02-28T04:15:04.932Z,984.58
2017-02-28T04:15:45.433Z,984.64
2017-02-28T04:16:25.915Z,984.7
2017-02-28T04:17:06.396Z,984.58
2017-02-28T04:17:46.909Z,984.68
2017-02-28T04:18:27.377Z,984.6
2017-02-28T04:19:07.921Z,984.62
2017-02-28T04:19:48.435Z,984.6
2017-02-28T04:20:28.913Z,984.54
2017-02-28T04:21:09.376Z,984.52
2017-02-28T04:21:49.852Z,984.58
2017-02-28T04:22:30.347Z,984.58
2017-02-28T04:23:10.893Z,984.6
2017-02-28T04:23:51.382Z,984.54
2017-02-28T04:24:31.862Z,984.6
2017-02-28T04:25:12.372Z,984.58
2017-02-28T04:25:52.899Z,984.49
2017-02-28T04:26:33.386Z,984.58
2017-02-28T04:27:13.896Z,984.53
2017-02-28T04:27:54.351Z,984.56
2017-02-28T04:28:34.826Z,984.57
2017-02-28T04:29:15.323Z,984.58
2017-02-28T04:29:55.854Z,984.58
2017-02-28T04:30:36.365Z,984.49
2017-02-28T04:31:16.867Z,984.5
2017-02-28T04:31:57.371Z,984.53
2017-02-28T04:32:37.883Z,984.55
2017-02-28T04:33:18.363Z,984.5
2017-02-28T04:33:58.898Z,984.43
2017-02-28T04:34:39.353Z,984.55
2017-02-28T04:35:19.860Z,984.53
2017-02-28T04:36:00.361Z,984.54
2017-02-28T04:36:40.862Z,984.48
2017-02-28T04:37:21.334Z,984.53
2017-02-28T04:38:01.818Z,984.57
2017-02-28T04:38:42.333Z,984.54
2017-02-28T04:39:22.801Z,984.56
2017-02-28T04:40:03.310Z,984.52
2017-02-28T04:40:43.759Z,984.53
2017-02-28T04:41:24.283Z,984.56
2017-02-28T04:42:04.844Z,984.54
2017-02-28T04:42:45.309Z,984.55
2017-02-28T04:43:25.831Z,984.55
2017-02-28T04:44:06.410Z,984.59
2017-02-28T04:44:46.885Z,984.57
2017-02-28T04:45:27.433Z,984.61
2017-02-28T04:46:07.959Z,984.54
2017-02-28T04:46:48.424Z,984.46
2017-02-28T04:47:28.919Z,984.57
2017-02-28T04:48:09.414Z,984.41
2017-02-28T04:48:49.868Z,984.53
2017-02-28T04:49:30.403Z,984.59
2017-02-28T04:50:10.863Z,984.61
2017-02-28T04:50:51.352Z,984.63
2017-02-28T04:51:31.864Z,984.57
2017-02-28T04:52:12.308Z,984.58
2017-02-28T04:52:52.841Z,984.62
2017-02-28T04:53:33.313Z,984.61
2017-02-28T04:54:13.838Z,984.72
2017-02-28T04:54:54.299Z,984.64
2017-02-28T04:55:34.821Z,984.65
2017-02-28T04:56:15.276Z,984.67
2017-02-28T04:56:55.807Z,984.71
2017-02-28T04:57:36.319Z,984.69
2017-02-28T04:58:16.795Z,984.73
2017-02-28T04:58:57.297Z,984.61
2017-02-28T04:59:39.360Z,984.7
2017-02-28T05:00:19.842Z,984.56
2017-02-28T05:01:00.312Z,984.66
2017-02-28T05:01:40.836Z,984.72
2017-02-28T05:02:21.279Z,984.7
2017-02-28T05:03:01.769Z,984.85
2017-02-28T05:03:42.300Z,984.89
2017-02-28T05:04:22.820Z,984.8
2017-02-28T05:05:03.285Z,984.94
2017-02-28T05:05:43.773Z,984.94
2017-02-28T05:06:24.326Z,985.13
2017-02-28T05:07:04.761Z,984.86
2017-02-28T05:07:45.284Z,984.94
2017-02-28T05:08:25.735Z,984.88
2017-02-28T05:09:06.756Z,985.11
2017-02-28T05:09:47.280Z,984.94
2017-02-28T05:10:27.740Z,985.17
2017-02-28T05:11:08.226Z,984.78
2017-02-28T05:11:48.702Z,984.97
2017-02-28T05:12:29.177Z,984.9
2017-02-28T05:13:09.688Z,984.77
2017-02-28T05:13:50.175Z,984.82
2017-02-28T05:14:30.692Z,984.96
2017-02-28T05:15:11.236Z,984.7
2017-02-28T05:15:51.692Z,985.05
2017-02-28T05:16:32.224Z,984.76
2017-02-28T05:17:12.742Z,984.92
2017-02-28T05:17:53.204Z,984.81
2017-02-28T05:18:33.672Z,984.87
2017-02-28T05:19:14.148Z,984.99
2017-02-28T05:19:54.649Z,984.82
2017-02-28T05:20:37.890Z,984.84
2017-02-28T05:21:18.355Z,984.9
2017-02-28T05:21:58.869Z,984.97
2017-02-28T05:22:39.314Z,985.02
2017-02-28T05:23:19.837Z,984.85
2017-02-28T05:24:00.312Z,984.85
2017-02-28T05:24:40.789Z,984.72
2017-02-28T05:25:21.284Z,984.89
2017-02-28T05:26:01.730Z,984.83
2017-02-28T05:26:42.221Z,984.78
2017-02-28T05:27:22.691Z,985.01
2017-02-28T05:28:03.157Z,984.85
2017-02-28T05:28:43.640Z,984.77
2017-02-28T05:29:24.111Z,984.81
2017-02-28T05:30:04.583Z,984.99
2017-02-28T05:30:45.081Z,984.87
2017-02-28T05:31:25.559Z,984.87
2017-02-28T05:32:06.050Z,985.21
2017-02-28T05:32:46.502Z,985.12
2017-02-28T05:33:26.969Z,984.87
2017-02-28T05:34:07.437Z,984.74
2017-02-28T05:34:47.947Z,984.92
2017-02-28T05:35:28.425Z,984.82
2017-02-28T05:36:08.956Z,984.74
2017-02-28T05:36:49.401Z,984.79
2017-02-28T05:37:29.900Z,984.82
2017-02-28T05:38:10.349Z,984.77
2017-02-28T05:38:50.818Z,984.95
2017-02-28T05:39:31.263Z,985.02
2017-02-28T05:40:11.819Z,984.81
2017-02-28T05:40:52.311Z,984.92
2017-02-28T05:41:32.896Z,985.02
2017-02-28T05:42:13.384Z,984.83
2017-02-28T05:42:53.984Z,984.84
2017-02-28T05:43:34.460Z,984.85
2017-02-28T05:44:14.927Z,984.92
2017-02-28T05:44:55.460Z,985
2017-02-28T05:45:35.928Z,984.83
2017-02-28T05:46:16.416Z,984.91
2017-02-28T05:46:56.862Z,984.78
2017-02-28T05:47:37.349Z,984.76
2017-02-28T05:48:17.829Z,984.91
2017-02-28T05:48:58.301Z,984.97
2017-02-28T05:49:38.865Z,984.88
2017-02-28T05:50:19.299Z,985.11
2017-02-28T05:50:59.796Z,984.81
2017-02-28T05:51:40.266Z,984.82
2017-02-28T05:52:20.711Z,984.93
2017-02-28T05:53:01.185Z,984.91
2017-02-28T05:53:41.691Z,984.86
2017-02-28T05:54:22.237Z,984.99
2017-02-28T05:55:02.680Z,985.14
2017-02-28T05:55:43.172Z,984.9
2017-02-28T05:56:23.703Z,984.85
2017-02-28T05:57:04.183Z,984.82
2017-02-28T05:57:44.703Z,984.89
2017-02-28T05:58:25.223Z,984.93
2017-02-28T05:59:05.673Z,985.08
2017-02-28T05:59:46.200Z,984.92
2017-02-28T06:00:26.692Z,984.85
2017-02-28T06:01:07.225Z,985.03
2017-02-28T06:01:47.676Z,984.89
2017-02-28T06:02:28.215Z,985.03
2017-02-28T06:03:08.716Z,985.12
2017-02-28T06:03:49.283Z,985.26
2017-02-28T06:04:29.721Z,984.99
2017-02-28T06:05:10.227Z,985.11
2017-02-28T06:05:50.740Z,985.1
2017-02-28T06:06:31.241Z,985.06
2017-02-28T06:07:11.770Z,985.24
2017-02-28T06:07:52.225Z,985
2017-02-28T06:08:32.699Z,984.91
2017-02-28T06:09:13.158Z,985.11
2017-02-28T06:09:53.739Z,985.07
2017-02-28T06:10:34.237Z,985.13
2017-02-28T06:11:14.736Z,985.03
2017-02-28T06:11:55.194Z,984.98
2017-02-28T06:12:35.845Z,985.26
2017-02-28T06:13:16.365Z,984.95
2017-02-28T06:13:56.823Z,985.01
2017-02-28T06:14:37.329Z,985.16
2017-02-28T06:15:17.905Z,985.22
2017-02-28T06:15:58.404Z,985.21
2017-02-28T06:16:38.867Z,985.21
2017-02-28T06:17:19.390Z,985.14
2017-02-28T06:17:59.943Z,985.1
2017-02-28T06:18:40.436Z,985.08
2017-02-28T06:19:20.923Z,985
2017-02-28T06:20:01.404Z,984.99
2017-02-28T06:20:41.915Z,985.06
2017-02-28T06:21:22.454Z,985.09
2017-02-28T06:22:03.790Z,985.12
2017-02-28T06:22:44.282Z,984.98
2017-02-28T06:23:24.810Z,985.15
2017-02-28T06:24:05.293Z,985.01
2017-02-28T06:24:45.740Z,984.97
2017-02-28T06:25:26.205Z,984.95
2017-02-28T06:26:06.763Z,984.97
2017-02-28T06:26:47.221Z,985.06
2017-02-28T06:27:27.698Z,984.97
2017-02-28T06:28:08.150Z,985.01
2017-02-28T06:28:48.621Z,985.1
2017-02-28T06:29:29.100Z,985.01
2017-02-28T06:30:09.607Z,985.15
2017-02-28T06:30:51.021Z,985.21
2017-02-28T06:31:31.492Z,985.1
2017-02-28T06:32:11.993Z,985.13
2017-02-28T06:32:53.108Z,985.19
2017-02-28T06:33:33.579Z,985.18
2017-02-28T06:34:14.055Z,985.22
2017-02-28T06:34:55.090Z,985.12
2017-02-28T06:35:35.638Z,985.49
2017-02-28T06:36:16.085Z,985.49
2017-02-28T06:36:56.636Z,985.23
2017-02-28T06:37:37.273Z,985.5
2017-02-28T06:38:17.749Z,985.3
2017-02-28T06:38:58.213Z,985.19
2017-02-28T06:39:38.690Z,985.38
2017-02-28T06:40:19.195Z,985.47
2017-02-28T06:40:59.617Z,985.26
2017-02-28T06:41:40.107Z,985.17
2017-02-28T06:42:21.440Z,985.27
2017-02-28T06:43:02.084Z,985.3
2017-02-28T06:43:44.112Z,985.34
2017-02-28T06:44:25.657Z,985.22
2017-02-28T06:45:06.096Z,985.23
2017-02-28T06:45:47.710Z,985.21
2017-02-28T06:46:29.194Z,985.32
2017-02-28T06:47:11.199Z,985.29
2017-02-28T06:47:53.637Z,985.36
2017-02-28T06:48:35.755Z,985.27
2017-02-28T06:49:16.326Z,985.3
2017-02-28T06:49:58.672Z,985.28
2017-02-28T06:50:39.222Z,985.32
2017-02-28T06:51:23.452Z,985.33
2017-02-28T06:52:03.942Z,985.46
2017-02-28T06:52:45.443Z,985.37
2017-02-28T06:53:26.002Z,985.26
2017-02-28T06:54:07.181Z,985.39
2017-02-28T06:54:50.953Z,985.34
2017-02-28T06:55:31.560Z,985.27
2017-02-28T06:56:12.095Z,985.32
2017-02-28T06:56:52.628Z,985.36
2017-02-28T06:57:34.692Z,985.23
2017-02-28T06:58:16.793Z,985.33
2017-02-28T06:58:58.269Z,985.34
2017-02-28T06:59:39.330Z,985.44
2017-02-28T07:00:20.422Z,985.42
2017-02-28T07:01:02.746Z,985.51
2017-02-28T07:01:43.238Z,985.48
2017-02-28T07:02:24.471Z,985.64
2017-02-28T07:03:06.005Z,985.38
2017-02-28T07:03:46.544Z,985.48
2017-02-28T07:04:27.007Z,985.44
2017-02-28T07:05:07.981Z,985.62
2017-02-28T07:05:48.465Z,985.53
2017-02-28T07:06:28.924Z,985.81
2017-02-28T07:07:09.424Z,985.47
2017-02-28T07:07:49.944Z,985.45
2017-02-28T07:08:30.571Z,985.45
2017-02-28T07:09:11.170Z,985.5
2017-02-28T07:09:51.756Z,985.48
2017-02-28T07:10:32.332Z,985.39
2017-02-28T07:11:12.936Z,985.66
2017-02-28T07:11:53.440Z,985.57
2017-02-28T07:12:34.480Z,985.51
2017-02-28T07:13:14.965Z,985.68
2017-02-28T07:13:55.441Z,985.5
2017-02-28T07:14:35.917Z,985.81
2017-02-28T07:15:16.365Z,985.74
2017-02-28T07:15:56.950Z,985.5
2017-02-28T07:16:37.404Z,985.61
2017-02-28T07:17:17.858Z,985.59
2017-02-28T07:17:58.345Z,985.55
2017-02-28T07:18:38.869Z,985.61
2017-02-28T07:19:19.295Z,985.45
2017-02-28T07:19:59.796Z,985.64
2017-02-28T07:20:40.305Z,985.54
2017-02-28T07:21:20.892Z,985.66
2017-02-28T07:22:01.358Z,985.6
2017-02-28T07:22:41.798Z,985.66
2017-02-28T07:23:22.323Z,985.64
2017-02-28T07:24:03.084Z,985.65
2017-02-28T07:24:43.737Z,985.66
2017-02-28T07:25:24.269Z,985.68
2017-02-28T07:26:04.814Z,985.73
2017-02-28T07:26:45.310Z,985.67
2017-02-28T07:27:25.888Z,985.75
2017-02-28T07:28:06.434Z,985.93
2017-02-28T07:28:46.976Z,985.64
2017-02-28T07:29:27.486Z,985.87
2017-02-28T07:30:08.003Z,986.14
2017-02-28T07:30:48.507Z,985.74
2017-02-28T07:31:29.002Z,985.7
2017-02-28T07:32:09.515Z,985.79
2017-02-28T07:32:50.012Z,985.79
2017-02-28T07:33:30.495Z,985.79
2017-02-28T07:34:10.989Z,985.76
2017-02-28T07:34:51.445Z,985.89
2017-02-28T07:35:32.047Z,985.7
2017-02-28T07:36:12.511Z,985.73
2017-02-28T07:36:52.988Z,985.76
2017-02-28T07:37:34.145Z,985.77
2017-02-28T07:38:15.201Z,985.73
2017-02-28T07:38:55.741Z,985.9
2017-02-28T07:39:36.183Z,985.79
2017-02-28T07:40:16.689Z,986.02
2017-02-28T07:40:57.739Z,985.92
2017-02-28T07:41:38.162Z,986.22
2017-02-28T07:42:18.773Z,985.96
2017-02-28T07:42:59.384Z,985.77
2017-02-28T07:43:40.711Z,985.78
2017-02-28T07:44:22.071Z,985.73
2017-02-28T07:45:02.512Z,985.7
2017-02-28T07:45:43.031Z,985.83
2017-02-28T07:46:23.582Z,985.84
2017-02-28T07:47:04.989Z,985.76
2017-02-28T07:47:50.951Z,985.82
2017-02-28T07:48:37.323Z,985.83
2017-02-28T07:49:18.470Z,985.89
2017-02-28T07:49:58.937Z,985.78
2017-02-28T07:50:39.755Z,985.9
2017-02-28T07:51:20.223Z,985.88
2017-02-28T07:52:01.398Z,985.87
2017-02-28T07:52:42.260Z,985.78
2017-02-28T07:53:22.786Z,985.87
2017-02-28T07:54:03.240Z,985.78
2017-02-28T07:54:43.676Z,985.85
2017-02-28T07:55:24.255Z,985.85
2017-02-28T07:56:04.953Z,985.92
2017-02-28T07:56:53.599Z,985.86
2017-02-28T07:57:42.270Z,985.89
2017-02-28T07:58:22.751Z,986.08
2017-02-28T07:59:03.238Z,985.97
2017-02-28T07:59:44.743Z,985.9
2017-02-28T08:00:25.317Z,985.95
2017-02-28T08:01:08.033Z,985.92
2017-02-28T08:01:48.867Z,985.94
2017-02-28T08:02:29.702Z,986.11
2017-02-28T08:03:11.992Z,985.98
2017-02-28T08:03:53.427Z,985.95
2017-02-28T08:04:34.017Z,985.99
2017-02-28T08:05:14.450Z,985.98
2017-02-28T08:05:54.977Z,986.05
2017-02-28T08:06:36.339Z,986.02
2017-02-28T08:07:18.058Z,986
2017-02-28T08:08:00.279Z,986.14
2017-02-28T08:08:40.843Z,986.15
2017-02-28T08:09:21.343Z,986.08
2017-02-28T08:10:01.812Z,985.97
2017-02-28T08:10:42.320Z,986.12
2017-02-28T08:11:22.769Z,986.02
2017-02-28T08:12:03.904Z,986.1
2017-02-28T08:12:46.464Z,986.13
2017-02-28T08:13:28.041Z,986.25
2017-02-28T08:14:08.491Z,986.07
2017-02-28T08:14:49.026Z,986.05
2017-02-28T08:15:29.518Z,986.08
2017-02-28T08:16:11.001Z,986.07
2017-02-28T08:16:51.588Z,986.09
2017-02-28T08:17:32.808Z,986.14
2017-02-28T08:18:13.174Z,986.1
2017-02-28T08:18:53.671Z,986.09
2017-02-28T08:19:34.208Z,986.1
2017-02-28T08:20:16.118Z,986.21
2017-02-28T08:20:56.592Z,986.01
2017-02-28T08:21:37.116Z,986.19
2017-02-28T08:22:18.285Z,986.2
2017-02-28T08:23:00.029Z,986.09
2017-02-28T08:23:40.547Z,986.17
2017-02-28T08:24:22.510Z,986.13
2017-02-28T08:25:03.984Z,986.12
2017-02-28T08:25:47.955Z,986.11
2017-02-28T08:26:28.465Z,986.17
2017-02-28T08:27:08.979Z,986.19
2017-02-28T08:27:50.970Z,986.3
2017-02-28T08:28:31.556Z,986.24
2017-02-28T08:29:12.961Z,986.25